createdAt,value
2022-12-24T00:01:26.096Z,97063.03
2022-12-24T00:03:53.859Z,97065.09
2022-12-24T00:06:24.134Z,97064.66
2022-12-24T00:08:52.463Z,97075.19
2022-12-24T00:11:20.825Z,97059.72
2022-12-24T00:13:49.494Z,97061.81
2022-12-24T00:16:17.519Z,97074.13
2022-12-24T00:18:46.569Z,97070.19
2022-12-24T00:21:17.971Z,97074.53
2022-12-24T00:23:45.818Z,97077.56
2022-12-24T00:26:14.899Z,97080.84
2022-12-24T00:28:42.901Z,97066.84
2022-12-24T00:31:14.400Z,97062.97
2022-12-24T00:33:42.503Z,97065.81
2022-12-24T00:36:10.771Z,97059.28
2022-12-24T00:38:39.626Z,97075.63
2022-12-24T00:41:24.781Z,97070.16
2022-12-24T00:43:56.549Z,97064.59
2022-12-24T00:46:26.522Z,97051.28
2022-12-24T00:48:54.637Z,97073.22
2022-12-24T00:51:23.559Z,97075.34
2022-12-24T00:53:52.213Z,97073.25
2022-12-24T00:56:20.760Z,97082.94
2022-12-24T00:58:48.621Z,97095.28
2022-12-24T01:01:17.504Z,97105.41
2022-12-24T01:03:45.554Z,97107.25
2022-12-24T01:06:20.951Z,97116.78
2022-12-24T01:08:52.219Z,97129.81
2022-12-24T01:11:19.997Z,97127.31
2022-12-24T01:13:47.770Z,97133.00
2022-12-24T01:16:19.911Z,97149.41
2022-12-24T01:18:47.979Z,97144.56
2022-12-24T01:21:16.784Z,97157.41
2022-12-24T01:23:45.098Z,97174.75
2022-12-24T01:26:12.911Z,97190.78
2022-12-24T01:28:41.318Z,97178.81
2022-12-24T01:31:15.637Z,97179.06
2022-12-24T01:33:44.332Z,97190.97
2022-12-24T01:36:13.073Z,97190.44
2022-12-24T01:38:41.506Z,97194.84
2022-12-24T01:41:37.885Z,97203.22
2022-12-24T01:44:36.965Z,97202.19
2022-12-24T01:47:30.509Z,97197.50
2022-12-24T01:50:03.661Z,97209.28
2022-12-24T01:52:37.003Z,97205.72
2022-12-24T01:55:10.891Z,97216.94
2022-12-24T01:57:45.287Z,97223.47
2022-12-24T02:00:15.816Z,97224.47
2022-12-24T02:02:48.103Z,97222.72
2022-12-24T02:05:49.151Z,97226.13
2022-12-24T02:08:18.233Z,97230.94
2022-12-24T02:10:47.962Z,97224.47
2022-12-24T02:13:20.492Z,97229.06
2022-12-24T02:16:18.353Z,97238.84
2022-12-24T02:19:21.757Z,97217.22
2022-12-24T02:22:07.203Z,97217.97
2022-12-24T02:25:10.509Z,97234.63
2022-12-24T02:28:00.300Z,97241.66
2022-12-24T02:30:38.750Z,97247.69
2022-12-24T02:33:21.168Z,97239.31
2022-12-24T02:36:23.345Z,97219.31
2022-12-24T02:39:12.408Z,97216.47
2022-12-24T02:42:20.834Z,97218.13
2022-12-24T02:44:55.768Z,97219.78
2022-12-24T02:47:28.089Z,97227.03
2022-12-24T02:49:55.836Z,97237.13
2022-12-24T02:52:43.416Z,97233.44
2022-12-24T02:55:24.475Z,97230.28
2022-12-24T02:58:33.271Z,97229.09
2022-12-24T03:01:22.950Z,97240.78
2022-12-24T03:04:08.680Z,97238.94
2022-12-24T03:07:04.200Z,97251.09
2022-12-24T03:09:48.300Z,97254.56
2022-12-24T03:12:21.283Z,97249.75
2022-12-24T03:14:49.898Z,97266.91
2022-12-24T03:17:19.897Z,97259.75
2022-12-24T03:19:48.741Z,97276.41
2022-12-24T03:22:18.243Z,97299.06
2022-12-24T03:24:45.988Z,97292.16
2022-12-24T03:27:15.402Z,97290.16
2022-12-24T03:29:43.263Z,97289.56
2022-12-24T03:32:11.041Z,97281.63
2022-12-24T03:34:38.911Z,97296.03
2022-12-24T03:37:06.669Z,97291.94
2022-12-24T03:39:34.357Z,97310.94
2022-12-24T03:42:02.097Z,97314.25
2022-12-24T03:44:29.817Z,97308.84
2022-12-24T03:46:57.712Z,97315.47
2022-12-24T03:49:25.434Z,97314.72
2022-12-24T03:51:53.184Z,97306.34
2022-12-24T03:54:21.025Z,97308.31
2022-12-24T03:56:48.791Z,97311.09
2022-12-24T03:59:16.613Z,97315.00
2022-12-24T04:01:44.409Z,97319.00
2022-12-24T04:04:12.305Z,97322.44
2022-12-24T04:06:40.040Z,97308.63
2022-12-24T04:09:07.770Z,97322.47
2022-12-24T04:11:35.566Z,97330.47
2022-12-24T04:14:03.764Z,97335.06
2022-12-24T04:16:31.700Z,97327.44
2022-12-24T04:18:59.495Z,97325.41
2022-12-24T04:21:27.204Z,97325.06
2022-12-24T04:23:54.968Z,97333.97
2022-12-24T04:26:22.734Z,97327.66
2022-12-24T04:28:50.555Z,97338.81
2022-12-24T04:31:18.718Z,97326.91
2022-12-24T04:33:47.180Z,97329.22
2022-12-24T04:36:18.030Z,97337.53
2022-12-24T04:38:47.699Z,97348.84
2022-12-24T04:41:24.349Z,97347.00
2022-12-24T04:43:55.917Z,97353.19
2022-12-24T04:46:32.592Z,97361.84
2022-12-24T04:49:00.367Z,97356.50
2022-12-24T04:51:29.364Z,97354.84
2022-12-24T04:53:58.043Z,97366.94
2022-12-24T04:56:29.666Z,97365.91
2022-12-24T04:59:00.349Z,97352.94
2022-12-24T05:01:32.432Z,97350.44
2022-12-24T05:04:01.537Z,97342.13
2022-12-24T05:06:32.127Z,97341.31
2022-12-24T05:09:00.748Z,97338.75
2022-12-24T05:11:28.906Z,97330.28
2022-12-24T05:13:56.916Z,97341.34
2022-12-24T05:16:25.069Z,97342.38
2022-12-24T05:18:53.098Z,97347.91
2022-12-24T05:21:23.450Z,97332.50
2022-12-24T05:24:10.705Z,97339.31
2022-12-24T05:26:53.406Z,97346.25
2022-12-24T05:29:21.687Z,97343.19
2022-12-24T05:31:49.950Z,97348.56
2022-12-24T05:34:17.964Z,97348.28
2022-12-24T05:36:45.795Z,97342.94
2022-12-24T05:39:18.676Z,97343.97
2022-12-24T05:41:47.235Z,97349.13
2022-12-24T05:44:16.345Z,97341.28
2022-12-24T05:46:44.786Z,97330.31
2022-12-24T05:49:13.305Z,97343.84
2022-12-24T05:51:41.775Z,97343.84
2022-12-24T05:54:11.681Z,97341.94
2022-12-24T05:56:39.401Z,97344.34
2022-12-24T05:59:07.208Z,97349.25
2022-12-24T06:01:35.297Z,97338.72
2022-12-24T06:04:03.539Z,97345.72
2022-12-24T06:06:31.359Z,97350.25
2022-12-24T06:08:59.303Z,97362.59
2022-12-24T06:11:28.438Z,97368.22
2022-12-24T06:13:56.647Z,97370.50
2022-12-24T06:16:26.123Z,97359.66
2022-12-24T06:18:54.344Z,97372.34
2022-12-24T06:21:22.543Z,97373.91
2022-12-24T06:23:50.349Z,97378.53
2022-12-24T06:26:22.451Z,97377.56
2022-12-24T06:28:51.300Z,97384.91
2022-12-24T06:31:22.707Z,97380.56
2022-12-24T06:33:51.936Z,97384.03
2022-12-24T06:36:23.841Z,97391.44
2022-12-24T06:38:53.646Z,97403.31
2022-12-24T06:41:22.062Z,97404.63
2022-12-24T06:43:52.705Z,97410.78
2022-12-24T06:46:21.665Z,97416.13
2022-12-24T06:48:49.769Z,97416.13
2022-12-24T06:51:20.041Z,97424.16
2022-12-24T06:53:50.797Z,97427.03
2022-12-24T06:56:20.434Z,97436.22
2022-12-24T06:58:48.405Z,97431.53
2022-12-24T07:01:19.327Z,97445.44
2022-12-24T07:03:47.702Z,97437.44
2022-12-24T07:06:25.379Z,97418.53
2022-12-24T07:08:53.633Z,97427.84
2022-12-24T07:11:23.180Z,97436.88
2022-12-24T07:13:51.054Z,97438.53
2022-12-24T07:16:19.040Z,97442.22
2022-12-24T07:18:46.930Z,97437.06
2022-12-24T07:21:14.792Z,97445.28
2022-12-24T07:23:42.780Z,97449.41
2022-12-24T07:26:11.356Z,97456.59
2022-12-24T07:28:39.146Z,97458.63
2022-12-24T07:31:06.985Z,97470.72
2022-12-24T07:33:34.744Z,97470.31
2022-12-24T07:36:10.589Z,97472.00
2022-12-24T07:38:38.782Z,97474.50
2022-12-24T07:41:06.525Z,97472.25
2022-12-24T07:43:34.532Z,97474.28
2022-12-24T07:46:02.667Z,97483.59
2022-12-24T07:48:31.591Z,97478.09
2022-12-24T07:51:00.581Z,97481.56
2022-12-24T07:53:30.182Z,97484.25
2022-12-24T07:55:58.426Z,97483.44
2022-12-24T07:58:26.663Z,97481.94
2022-12-24T08:00:59.421Z,97476.22
2022-12-24T08:03:28.516Z,97483.03
2022-12-24T08:05:56.538Z,97493.16
2022-12-24T08:08:25.177Z,97492.44
2022-12-24T08:10:53.071Z,97495.28
2022-12-24T08:13:20.907Z,97494.47
2022-12-24T08:15:48.663Z,97505.25
2022-12-24T08:18:16.474Z,97512.19
2022-12-24T08:20:44.226Z,97511.25
2022-12-24T08:23:12.002Z,97505.06
2022-12-24T08:25:47.926Z,97515.91
2022-12-24T08:28:19.426Z,97510.19
2022-12-24T08:30:50.332Z,97516.00
2022-12-24T08:33:18.608Z,97516.66
2022-12-24T08:35:51.341Z,97529.84
2022-12-24T08:38:20.059Z,97524.34
2022-12-24T08:40:50.108Z,97531.50
2022-12-24T08:43:19.298Z,97538.34
2022-12-24T08:45:49.564Z,97539.53
2022-12-24T08:48:17.999Z,97541.19
2022-12-24T08:50:46.042Z,97537.88
2022-12-24T08:53:14.295Z,97544.88
2022-12-24T08:55:42.387Z,97547.38
2022-12-24T08:58:10.152Z,97536.66
2022-12-24T09:00:38.376Z,97542.19
2022-12-24T09:03:06.288Z,97544.22
2022-12-24T09:05:34.609Z,97544.22
2022-12-24T09:08:02.392Z,97553.91
2022-12-24T09:10:30.199Z,97552.88
2022-12-24T09:12:57.993Z,97560.25
2022-12-24T09:15:25.724Z,97561.94
2022-12-24T09:17:53.470Z,97572.47
2022-12-24T09:20:21.265Z,97579.47
2022-12-24T09:22:49.016Z,97573.59
2022-12-24T09:25:16.772Z,97578.97
2022-12-24T09:27:44.577Z,97578.28
2022-12-24T09:30:13.298Z,97588.91
2022-12-24T09:32:41.116Z,97595.38
2022-12-24T09:35:09.354Z,97595.00
2022-12-24T09:37:38.134Z,97596.09
2022-12-24T09:40:06.836Z,97596.09
2022-12-24T09:42:41.322Z,97608.09
2022-12-24T09:45:35.066Z,97598.53
2022-12-24T09:48:16.030Z,97603.25
2022-12-24T09:51:16.798Z,97604.19
2022-12-24T09:53:57.304Z,97602.06
2022-12-24T09:56:31.583Z,97601.59
2022-12-24T09:59:04.601Z,97601.78
2022-12-24T10:01:34.890Z,97605.47
2022-12-24T10:04:16.020Z,97595.16
2022-12-24T10:07:31.678Z,97596.44
2022-12-24T10:10:20.390Z,97593.13
2022-12-24T10:13:09.962Z,97609.91
2022-12-24T10:16:12.808Z,97594.66
2022-12-24T10:19:04.977Z,97604.00
2022-12-24T10:21:33.621Z,97608.78
2022-12-24T10:24:14.741Z,97616.81
2022-12-24T10:26:56.594Z,97625.50
2022-12-24T10:29:34.862Z,97630.13
2022-12-24T10:32:08.309Z,97635.03
2022-12-24T10:34:43.382Z,97634.47
2022-12-24T10:37:20.250Z,97629.38
2022-12-24T10:39:48.058Z,97633.34
2022-12-24T10:42:17.018Z,97620.81
2022-12-24T10:44:52.273Z,97625.41
2022-12-24T10:47:22.619Z,97629.13
2022-12-24T10:50:06.390Z,97633.44
2022-12-24T10:52:40.548Z,97632.78
2022-12-24T10:55:17.015Z,97634.38
2022-12-24T10:57:47.143Z,97629.31
2022-12-24T11:00:27.139Z,97620.88
2022-12-24T11:03:23.714Z,97625.78
2022-12-24T11:06:23.344Z,97618.84
2022-12-24T11:08:51.111Z,97609.06
2022-12-24T11:11:21.361Z,97607.03
2022-12-24T11:13:51.851Z,97615.53
2022-12-24T11:16:36.220Z,97623.56
2022-12-24T11:19:14.765Z,97623.38
2022-12-24T11:21:42.921Z,97623.81
2022-12-24T11:24:13.408Z,97632.72
2022-12-24T11:26:43.831Z,97635.94
2022-12-24T11:29:25.454Z,97637.72
2022-12-24T11:32:10.029Z,97641.75
2022-12-24T11:34:42.785Z,97640.91
2022-12-24T11:37:22.082Z,97640.56
2022-12-24T11:39:58.132Z,97640.63
2022-12-24T11:42:37.080Z,97634.94
2022-12-24T11:45:17.566Z,97635.41
2022-12-24T11:47:46.304Z,97645.28
2022-12-24T11:50:36.942Z,97638.16
2022-12-24T11:53:04.640Z,97637.25
2022-12-24T11:55:47.035Z,97635.31
2022-12-24T11:58:45.267Z,97636.75
2022-12-24T12:01:40.288Z,97632.59
2022-12-24T12:04:29.725Z,97634.28
2022-12-24T12:07:03.635Z,97629.56
2022-12-24T12:09:45.764Z,97629.09
2022-12-24T12:12:20.605Z,97620.03
2022-12-24T12:15:13.730Z,97607.31
2022-12-24T12:18:07.578Z,97611.09
2022-12-24T12:20:41.501Z,97608.34
2022-12-24T12:23:36.102Z,97611.09
2022-12-24T12:26:28.927Z,97602.34
2022-12-24T12:29:30.390Z,97613.31
2022-12-24T12:32:12.656Z,97612.13
2022-12-24T12:35:25.063Z,97615.44
2022-12-24T12:38:02.228Z,97616.19
2022-12-24T12:41:15.089Z,97617.47
2022-12-24T12:44:25.602Z,97630.84
2022-12-24T12:47:30.396Z,97626.03
2022-12-24T12:50:17.599Z,97631.53
2022-12-24T12:53:27.439Z,97630.09
2022-12-24T12:56:21.653Z,97628.38
2022-12-24T12:59:14.934Z,97625.13
2022-12-24T13:02:13.268Z,97621.22
2022-12-24T13:05:08.527Z,97621.16
2022-12-24T13:08:07.320Z,97615.91
2022-12-24T13:11:03.569Z,97621.19
2022-12-24T13:14:27.580Z,97618.00
2022-12-24T13:17:09.915Z,97628.84
2022-12-24T13:20:29.625Z,97629.13
2022-12-24T13:22:58.724Z,97624.94
2022-12-24T13:25:44.119Z,97625.78
2022-12-24T13:28:24.956Z,97630.69
2022-12-24T13:31:01.639Z,97626.53
2022-12-24T13:33:38.495Z,97630.03
2022-12-24T13:36:17.234Z,97625.31
2022-12-24T13:38:54.508Z,97620.44
2022-12-24T13:41:39.450Z,97624.41
2022-12-24T13:44:12.676Z,97621.81
2022-12-24T13:47:00.589Z,97614.25
2022-12-24T13:49:42.752Z,97624.75
2022-12-24T13:52:14.436Z,97625.22
2022-12-24T13:54:55.414Z,97618.84
2022-12-24T13:57:44.941Z,97617.00
2022-12-24T14:00:21.742Z,97612.47
2022-12-24T14:03:21.802Z,97611.00
2022-12-24T14:06:10.254Z,97608.97
2022-12-24T14:08:43.873Z,97601.94
2022-12-24T14:11:16.395Z,97610.81
2022-12-24T14:13:47.132Z,97608.16
2022-12-24T14:16:25.850Z,97605.47
2022-12-24T14:19:16.314Z,97602.16
2022-12-24T14:22:14.401Z,97602.97
2022-12-24T14:24:46.316Z,97599.00
2022-12-24T14:27:36.484Z,97610.25
2022-12-24T14:30:28.979Z,97617.47
2022-12-24T14:32:57.453Z,97613.16
2022-12-24T14:35:38.358Z,97607.97
2022-12-24T14:38:16.184Z,97606.28
2022-12-24T14:41:24.390Z,97602.63
2022-12-24T14:44:12.396Z,97598.09
2022-12-24T14:46:56.330Z,97613.88
2022-12-24T14:50:21.225Z,97631.88
2022-12-24T14:53:41.419Z,97627.91
2022-12-24T14:56:18.713Z,97626.44
2022-12-24T14:58:47.745Z,97633.16
2022-12-24T15:01:28.922Z,97631.88
2022-12-24T15:04:18.121Z,97629.75
2022-12-24T15:06:54.668Z,97629.94
2022-12-24T15:09:31.671Z,97634.28
2022-12-24T15:12:04.503Z,97625.59
2022-12-24T15:14:42.456Z,97625.78
2022-12-24T15:17:13.392Z,97626.97
2022-12-24T15:19:45.295Z,97625.50
2022-12-24T15:22:26.094Z,97632.69
2022-12-24T15:24:54.367Z,97634.06
2022-12-24T15:27:32.566Z,97634.59
2022-12-24T15:30:18.015Z,97637.28
2022-12-24T15:32:46.028Z,97651.50
2022-12-24T15:35:54.497Z,97646.69
2022-12-24T15:38:39.881Z,97648.53
2022-12-24T15:41:26.791Z,97652.41
2022-12-24T15:44:04.202Z,97657.47
2022-12-24T15:46:33.207Z,97658.66
2022-12-24T15:49:03.087Z,97664.38
2022-12-24T15:51:40.557Z,97665.41
2022-12-24T15:54:16.342Z,97672.22
2022-12-24T15:56:45.969Z,97671.56
2022-12-24T15:59:19.270Z,97674.41
2022-12-24T16:01:48.397Z,97661.03
2022-12-24T16:04:28.103Z,97662.88
2022-12-24T16:07:07.986Z,97670.91
2022-12-24T16:09:35.602Z,97669.06
2022-12-24T16:12:04.634Z,97671.91
2022-12-24T16:14:33.706Z,97667.41
2022-12-24T16:17:01.513Z,97662.72
2022-12-24T16:19:39.466Z,97672.22
2022-12-24T16:22:26.501Z,97672.22
2022-12-24T16:24:55.600Z,97688.25
2022-12-24T16:27:23.695Z,97679.41
2022-12-24T16:29:51.492Z,97678.75
2022-12-24T16:32:38.109Z,97674.59
2022-12-24T16:35:19.628Z,97673.94
2022-12-24T16:37:47.343Z,97681.31
2022-12-24T16:40:19.354Z,97681.69
2022-12-24T16:43:08.467Z,97684.38
2022-12-24T16:45:37.491Z,97699.56
2022-12-24T16:48:08.512Z,97697.91
2022-12-24T16:50:36.609Z,97700.75
2022-12-24T16:53:04.360Z,97712.66
2022-12-24T16:55:32.080Z,97709.13
2022-12-24T16:57:59.816Z,97699.28
2022-12-24T17:00:27.667Z,97700.44
2022-12-24T17:02:55.595Z,97702.13
2022-12-24T17:05:23.998Z,97707.31
2022-12-24T17:07:52.112Z,97712.66
2022-12-24T17:10:20.039Z,97701.94
2022-12-24T17:12:47.815Z,97703.59
2022-12-24T17:15:15.594Z,97712.44
2022-12-24T17:17:43.431Z,97714.13
2022-12-24T17:20:11.490Z,97718.94
2022-12-24T17:22:39.375Z,97718.59
2022-12-24T17:25:08.162Z,97723.09
2022-12-24T17:27:35.966Z,97726.59
2022-12-24T17:30:04.530Z,97725.59
2022-12-24T17:32:32.680Z,97719.06
2022-12-24T17:35:00.619Z,97727.09
2022-12-24T17:37:28.373Z,97729.59
2022-12-24T17:39:56.117Z,97725.06
2022-12-24T17:42:23.891Z,97734.75
2022-12-24T17:44:51.595Z,97734.56
2022-12-24T17:47:19.369Z,97735.88
2022-12-24T17:49:47.123Z,97736.72
2022-12-24T17:52:14.891Z,97740.06
2022-12-24T17:54:42.608Z,97748.06
2022-12-24T17:57:10.531Z,97735.53
2022-12-24T17:59:38.314Z,97736.34
2022-12-24T18:02:06.184Z,97733.84
2022-12-24T18:04:34.024Z,97740.69
2022-12-24T18:07:03.171Z,97728.31
2022-12-24T18:09:31.353Z,97721.97
2022-12-24T18:11:59.172Z,97714.78
2022-12-24T18:14:27.694Z,97719.94
2022-12-24T18:16:55.550Z,97711.75
2022-12-24T18:19:23.457Z,97719.94
2022-12-24T18:21:51.234Z,97711.06
2022-12-24T18:24:19.444Z,97718.91
2022-12-24T18:26:47.371Z,97717.94
2022-12-24T18:29:17.446Z,97721.25
2022-12-24T18:31:45.370Z,97721.72
2022-12-24T18:34:15.193Z,97716.19
2022-12-24T18:36:43.052Z,97712.50
2022-12-24T18:39:10.991Z,97720.34
2022-12-24T18:41:38.797Z,97723.03
2022-12-24T18:44:06.660Z,97725.31
2022-12-24T18:46:34.739Z,97719.81
2022-12-24T18:49:02.866Z,97715.28
2022-12-24T18:51:36.180Z,97712.59
2022-12-24T18:54:05.342Z,97724.63
2022-12-24T18:56:33.226Z,97721.09
2022-12-24T18:59:03.303Z,97718.25
2022-12-24T19:01:34.828Z,97718.25
2022-12-24T19:04:03.652Z,97723.59
2022-12-24T19:06:31.492Z,97724.63
2022-12-24T19:09:01.236Z,97727.31
2022-12-24T19:11:33.218Z,97721.75
2022-12-24T19:14:03.408Z,97719.94
2022-12-24T19:16:35.466Z,97718.91
2022-12-24T19:19:09.677Z,97709.22
2022-12-24T19:21:37.506Z,97721.56
2022-12-24T19:24:06.588Z,97729.78
2022-12-24T19:26:34.295Z,97715.41
2022-12-24T19:29:02.077Z,97715.56
2022-12-24T19:31:29.987Z,97721.09
2022-12-24T19:33:58.183Z,97716.41
2022-12-24T19:36:29.666Z,97708.38
2022-12-24T19:38:58.932Z,97712.06
2022-12-24T19:41:29.820Z,97718.63
2022-12-24T19:44:01.773Z,97728.47
2022-12-24T19:46:36.219Z,97733.66
2022-12-24T19:49:07.815Z,97741.69
2022-12-24T19:51:36.161Z,97746.56
2022-12-24T19:54:06.042Z,97755.97
2022-12-24T19:56:34.329Z,97758.47
2022-12-24T19:59:03.248Z,97766.50
2022-12-24T20:01:34.703Z,97770.16
2022-12-24T20:04:03.985Z,97773.50
2022-12-24T20:06:34.570Z,97769.00
2022-12-24T20:09:06.405Z,97780.53
2022-12-24T20:11:35.147Z,97783.03
2022-12-24T20:14:05.009Z,97787.19
2022-12-24T20:16:33.714Z,97788.88
2022-12-24T20:19:04.915Z,97786.53
2022-12-24T20:21:33.406Z,97783.84
2022-12-24T20:24:01.333Z,97785.53
2022-12-24T20:26:30.284Z,97782.66
2022-12-24T20:28:58.421Z,97779.97
2022-12-24T20:31:29.620Z,97768.09
2022-12-24T20:33:59.251Z,97772.81
2022-12-24T20:36:28.923Z,97774.16
2022-12-24T20:38:58.643Z,97776.00
2022-12-24T20:41:29.333Z,97780.53
2022-12-24T20:44:01.342Z,97780.34
2022-12-24T20:46:31.123Z,97782.88
2022-12-24T20:48:59.333Z,97785.53
2022-12-24T20:51:28.595Z,97783.84
2022-12-24T20:53:59.708Z,97787.72
2022-12-24T20:56:28.394Z,97779.06
2022-12-24T20:58:59.333Z,97774.69
2022-12-24T21:01:28.569Z,97768.69
2022-12-24T21:04:00.284Z,97775.75
2022-12-24T21:06:28.041Z,97761.22
2022-12-24T21:08:55.805Z,97761.38
2022-12-24T21:11:47.085Z,97766.75
2022-12-24T21:14:18.019Z,97780.44
2022-12-24T21:16:46.437Z,97791.13
2022-12-24T21:19:19.271Z,97795.78
2022-12-24T21:21:47.932Z,97806.06
2022-12-24T21:24:16.537Z,97805.75
2022-12-24T21:26:44.373Z,97815.41
2022-12-24T21:29:12.583Z,97819.78
2022-12-24T21:31:40.975Z,97825.47
2022-12-24T21:34:09.326Z,97829.81
2022-12-24T21:36:37.101Z,97825.47
2022-12-24T21:39:05.066Z,97829.16
2022-12-24T21:41:32.822Z,97834.69
2022-12-24T21:44:02.071Z,97830.53
2022-12-24T21:46:30.258Z,97828.84
2022-12-24T21:49:27.387Z,97829.88
2022-12-24T21:51:55.244Z,97836.38
2022-12-24T21:54:23.198Z,97840.69
2022-12-24T21:57:11.947Z,97832.00
2022-12-24T21:59:40.170Z,97822.34
2022-12-24T22:02:14.892Z,97821.31
2022-12-24T22:04:43.554Z,97809.13
2022-12-24T22:07:46.972Z,97799.97
2022-12-24T22:10:33.392Z,97797.63
2022-12-24T22:13:06.249Z,97792.66
2022-12-24T22:15:42.488Z,97782.13
2022-12-24T22:18:10.329Z,97775.09
2022-12-24T22:20:39.348Z,97770.13
2022-12-24T22:23:07.136Z,97762.59
2022-12-24T22:25:35.325Z,97757.78
2022-12-24T22:28:03.568Z,97755.66
2022-12-24T22:30:32.550Z,97747.63
2022-12-24T22:33:00.318Z,97745.81
2022-12-24T22:35:28.083Z,97740.97
2022-12-24T22:37:59.810Z,97733.31
2022-12-24T22:40:28.444Z,97743.66
2022-12-24T22:42:56.309Z,97736.81
2022-12-24T22:45:24.239Z,97744.84
2022-12-24T22:47:52.065Z,97743.53
2022-12-24T22:50:19.942Z,97748.56
2022-12-24T22:52:47.792Z,97739.88
2022-12-24T22:55:15.626Z,97746.41
2022-12-24T22:57:43.491Z,97746.94
2022-12-24T23:00:38.995Z,97742.59
2022-12-24T23:03:07.780Z,97746.09
2022-12-24T23:05:35.955Z,97741.28
2022-12-24T23:08:04.609Z,97749.47
2022-12-24T23:10:32.719Z,97750.81
2022-12-24T23:13:18.794Z,97753.19
2022-12-24T23:15:46.569Z,97759.72
2022-12-24T23:18:15.173Z,97744.88
2022-12-24T23:20:47.951Z,97741.84
2022-12-24T23:23:16.140Z,97750.16
2022-12-24T23:25:43.910Z,97742.97
2022-12-24T23:28:11.816Z,97754.16
2022-12-24T23:30:39.557Z,97741.78
2022-12-24T23:33:07.337Z,97742.66
2022-12-24T23:35:35.033Z,97744.94
2022-12-24T23:38:02.777Z,97729.94
2022-12-24T23:40:30.491Z,97739.97
2022-12-24T23:42:58.217Z,97739.31
2022-12-24T23:45:25.990Z,97736.81
2022-12-24T23:47:53.708Z,97747.34
2022-12-24T23:50:21.448Z,97740.97
2022-12-24T23:52:49.169Z,97730.94
2022-12-24T23:55:17.027Z,97727.09
2022-12-24T23:57:44.938Z,97725.25
